createdAt,value
2023-01-27T00:00:08.381Z,16.30
2023-01-27T00:01:15.543Z,16.20
2023-01-27T00:02:17.963Z,16.20
2023-01-27T00:03:21.363Z,16.20
2023-01-27T00:04:23.741Z,16.20
2023-01-27T00:05:26.529Z,16.20
2023-01-27T00:06:28.871Z,16.20
2023-01-27T00:07:31.241Z,16.20
2023-01-27T00:08:33.946Z,16.20
2023-01-27T00:09:36.286Z,16.20
2023-01-27T00:10:38.577Z,16.20
2023-01-27T00:11:59.797Z,16.20
2023-01-27T00:13:20.944Z,16.20
2023-01-27T00:14:23.619Z,16.20
2023-01-27T00:15:26.399Z,16.20
2023-01-27T00:16:28.710Z,16.20
2023-01-27T00:17:31.014Z,16.20
2023-01-27T00:18:33.278Z,16.20
2023-01-27T00:19:35.542Z,16.20
2023-01-27T00:20:56.194Z,16.20
2023-01-27T00:22:17.386Z,16.20
2023-01-27T00:23:40.265Z,16.20
2023-01-27T00:24:43.402Z,16.20
2023-01-27T00:25:50.173Z,16.20
2023-01-27T00:26:52.498Z,16.20
2023-01-27T00:27:54.789Z,16.20
2023-01-27T00:28:57.175Z,16.20
2023-01-27T00:29:59.492Z,16.20
2023-01-27T00:31:03.783Z,16.20
2023-01-27T00:32:25.237Z,16.20
2023-01-27T00:33:28.057Z,16.20
2023-01-27T00:34:30.306Z,16.20
2023-01-27T00:35:33.265Z,16.20
2023-01-27T00:36:37.525Z,16.20
2023-01-27T00:37:39.897Z,16.20
2023-01-27T00:38:42.346Z,16.20
2023-01-27T00:39:44.707Z,16.20
2023-01-27T00:41:06.961Z,16.20
2023-01-27T00:42:10.098Z,16.10
2023-01-27T00:43:12.397Z,16.10
2023-01-27T00:44:16.187Z,16.10
2023-01-27T00:45:37.311Z,16.10
2023-01-27T00:46:44.558Z,16.10
2023-01-27T00:47:49.800Z,16.10
2023-01-27T00:48:52.523Z,16.10
2023-01-27T00:49:54.875Z,16.00
2023-01-27T00:50:57.301Z,16.10
2023-01-27T00:51:59.639Z,16.10
2023-01-27T00:53:02.261Z,16.10
2023-01-27T00:54:05.287Z,16.10
2023-01-27T00:55:08.316Z,16.10
2023-01-27T00:56:10.801Z,16.10
2023-01-27T00:57:13.181Z,16.10
2023-01-27T00:58:15.671Z,16.10
2023-01-27T00:59:18.551Z,16.10
2023-01-27T01:00:20.950Z,16.10
2023-01-27T01:01:23.534Z,16.10
2023-01-27T01:02:26.009Z,16.10
2023-01-27T01:03:32.253Z,16.10
2023-01-27T01:04:34.604Z,16.10
2023-01-27T01:05:37.051Z,16.00
2023-01-27T01:06:39.402Z,15.00
2023-01-27T01:07:41.698Z,14.40
2023-01-27T01:08:44.802Z,14.50
2023-01-27T01:09:47.155Z,14.50
2023-01-27T01:10:49.484Z,14.60
2023-01-27T01:11:51.828Z,14.60
2023-01-27T01:12:54.566Z,14.60
2023-01-27T01:13:57.013Z,14.60
2023-01-27T01:14:59.526Z,14.60
2023-01-27T01:16:12.904Z,14.60
2023-01-27T01:17:15.209Z,14.60
2023-01-27T01:18:17.514Z,14.60
2023-01-27T01:19:19.891Z,14.60
2023-01-27T01:20:22.446Z,14.60
2023-01-27T01:21:24.878Z,14.60
2023-01-27T01:22:27.193Z,14.60
2023-01-27T01:23:29.612Z,14.60
2023-01-27T01:24:32.280Z,14.60
2023-01-27T01:25:35.443Z,14.60
2023-01-27T01:26:37.981Z,14.60
2023-01-27T01:27:44.862Z,14.50
2023-01-27T01:28:47.655Z,14.50
2023-01-27T01:29:50.020Z,14.50
2023-01-27T01:30:52.586Z,13.90
2023-01-27T01:31:55.063Z,13.40
2023-01-27T01:32:57.769Z,13.10
2023-01-27T01:34:00.185Z,12.80
2023-01-27T01:35:02.566Z,12.60
2023-01-27T01:36:09.572Z,12.90
2023-01-27T01:37:11.998Z,13.10
2023-01-27T01:38:14.371Z,12.90
2023-01-27T01:39:16.741Z,12.70
2023-01-27T01:40:22.233Z,12.60
2023-01-27T01:41:26.676Z,12.50
2023-01-27T01:42:54.912Z,12.70
2023-01-27T01:43:57.247Z,13.20
2023-01-27T01:45:33.680Z,13.40
2023-01-27T01:46:36.128Z,13.70
2023-01-27T01:47:39.173Z,13.90
2023-01-27T01:48:49.835Z,14.00
2023-01-27T01:49:52.292Z,14.00
2023-01-27T01:51:06.222Z,13.50
2023-01-27T01:52:14.525Z,13.00
2023-01-27T01:53:19.270Z,12.70
2023-01-27T01:54:32.187Z,12.40
2023-01-27T01:55:36.824Z,12.20
2023-01-27T01:56:49.646Z,12.10
2023-01-27T01:57:52.336Z,12.00
2023-01-27T01:58:58.368Z,11.90
2023-01-27T02:00:07.079Z,11.80
2023-01-27T02:01:17.884Z,11.70
2023-01-27T02:02:25.183Z,11.60
2023-01-27T02:03:30.133Z,11.50
2023-01-27T02:04:38.813Z,11.50
2023-01-27T02:05:44.771Z,11.40
2023-01-27T02:06:56.335Z,11.40
2023-01-27T02:08:19.891Z,11.50
2023-01-27T02:09:23.413Z,11.50
2023-01-27T02:10:25.820Z,11.50
2023-01-27T02:11:29.034Z,11.50
2023-01-27T02:12:31.484Z,12.10
2023-01-27T02:13:34.706Z,12.70
2023-01-27T02:14:39.934Z,13.30
2023-01-27T02:15:42.238Z,13.80
2023-01-27T02:16:45.028Z,14.30
2023-01-27T02:17:48.531Z,14.60
2023-01-27T02:18:51.321Z,15.00
2023-01-27T02:20:28.572Z,15.20
2023-01-27T02:21:30.942Z,15.50
2023-01-27T02:22:58.340Z,15.80
2023-01-27T02:24:10.668Z,16.00
2023-01-27T02:25:36.728Z,16.10
2023-01-27T02:26:44.044Z,16.30
2023-01-27T02:27:46.663Z,16.50
2023-01-27T02:29:02.285Z,16.70
2023-01-27T02:30:05.359Z,16.80
2023-01-27T02:31:07.975Z,17.00
2023-01-27T02:32:25.529Z,17.10
2023-01-27T02:33:30.694Z,17.20
2023-01-27T02:34:37.872Z,17.30
2023-01-27T02:35:51.678Z,17.40
2023-01-27T02:36:58.586Z,17.40
2023-01-27T02:38:01.467Z,17.40
2023-01-27T02:39:07.410Z,17.40
2023-01-27T02:40:12.176Z,16.60
2023-01-27T02:41:25.890Z,15.70
2023-01-27T02:42:28.385Z,15.00
2023-01-27T02:43:30.874Z,15.10
2023-01-27T02:44:33.487Z,15.50
2023-01-27T02:45:35.794Z,15.80
2023-01-27T02:46:38.537Z,16.20
2023-01-27T02:47:42.875Z,16.50
2023-01-27T02:48:45.454Z,16.80
2023-01-27T02:49:49.448Z,17.00
2023-01-27T02:50:52.464Z,17.20
2023-01-27T02:51:55.000Z,17.30
2023-01-27T02:52:57.783Z,17.40
2023-01-27T02:54:00.334Z,17.50
2023-01-27T02:55:02.783Z,17.50
2023-01-27T02:56:06.309Z,17.60
2023-01-27T02:57:08.636Z,17.60
2023-01-27T02:58:21.158Z,17.60
2023-01-27T02:59:27.469Z,17.60
2023-01-27T03:00:29.847Z,17.60
2023-01-27T03:01:32.785Z,17.60
2023-01-27T03:02:35.920Z,17.70
2023-01-27T03:03:44.204Z,17.70
2023-01-27T03:04:46.696Z,17.70
2023-01-27T03:05:51.481Z,17.70
2023-01-27T03:06:53.872Z,17.80
2023-01-27T03:07:56.198Z,16.90
2023-01-27T03:08:58.523Z,16.50
2023-01-27T03:10:01.080Z,16.70
2023-01-27T03:11:05.575Z,16.90
2023-01-27T03:12:20.110Z,17.20
2023-01-27T03:13:26.340Z,17.40
2023-01-27T03:14:47.287Z,17.60
2023-01-27T03:16:08.818Z,17.60
2023-01-27T03:17:30.291Z,17.70
2023-01-27T03:18:32.842Z,17.70
2023-01-27T03:19:35.293Z,17.70
2023-01-27T03:20:44.206Z,17.80
2023-01-27T03:21:50.844Z,17.80
2023-01-27T03:22:53.282Z,17.80
2023-01-27T03:23:57.852Z,17.80
2023-01-27T03:25:00.189Z,17.80
2023-01-27T03:26:07.435Z,17.90
2023-01-27T03:27:11.763Z,17.90
2023-01-27T03:28:40.087Z,17.90
2023-01-27T03:29:55.827Z,17.90
2023-01-27T03:31:07.704Z,17.90
2023-01-27T03:32:18.539Z,18.00
2023-01-27T03:33:32.594Z,18.00
2023-01-27T03:34:49.648Z,18.00
2023-01-27T03:36:21.119Z,18.00
2023-01-27T03:37:48.584Z,18.00
2023-01-27T03:39:09.616Z,18.10
2023-01-27T03:40:32.015Z,18.10
2023-01-27T03:41:53.159Z,18.10
2023-01-27T03:43:16.570Z,18.10
2023-01-27T03:44:37.462Z,18.20
2023-01-27T03:46:02.527Z,18.20
2023-01-27T03:47:04.899Z,18.20
2023-01-27T03:48:07.387Z,18.20
2023-01-27T03:49:09.650Z,18.20
2023-01-27T03:50:19.185Z,18.20
2023-01-27T03:51:25.955Z,18.30
2023-01-27T03:52:28.548Z,18.30
2023-01-27T03:53:31.033Z,18.40
2023-01-27T03:54:33.326Z,18.40
2023-01-27T03:55:38.025Z,18.40
2023-01-27T03:56:40.297Z,18.40
2023-01-27T03:57:42.583Z,18.40
2023-01-27T03:58:45.080Z,18.40
2023-01-27T03:59:47.456Z,18.40
2023-01-27T04:00:55.152Z,18.50
2023-01-27T04:02:16.766Z,18.40
2023-01-27T04:03:38.524Z,18.50
2023-01-27T04:04:59.424Z,18.50
2023-01-27T04:06:29.104Z,18.60
2023-01-27T04:07:34.066Z,18.60
2023-01-27T04:08:36.410Z,18.60
2023-01-27T04:09:38.872Z,18.60
2023-01-27T04:10:41.128Z,18.60
2023-01-27T04:11:55.292Z,18.60
2023-01-27T04:12:57.631Z,18.60
2023-01-27T04:14:05.281Z,18.60
2023-01-27T04:15:08.591Z,18.60
2023-01-27T04:16:11.109Z,18.60
2023-01-27T04:17:16.204Z,18.60
2023-01-27T04:18:20.239Z,18.70
2023-01-27T04:19:22.900Z,18.70
2023-01-27T04:20:25.304Z,18.70
2023-01-27T04:21:27.621Z,18.70
2023-01-27T04:22:29.965Z,18.70
2023-01-27T04:23:32.374Z,18.60
2023-01-27T04:24:34.735Z,17.60
2023-01-27T04:25:37.047Z,17.00
2023-01-27T04:26:45.062Z,17.10
2023-01-27T04:27:47.348Z,17.50
2023-01-27T04:28:50.299Z,17.70
2023-01-27T04:29:52.784Z,17.90
2023-01-27T04:30:55.229Z,18.00
2023-01-27T04:31:58.272Z,18.10
2023-01-27T04:33:02.532Z,18.20
2023-01-27T04:34:05.287Z,18.20
2023-01-27T04:35:08.075Z,18.30
2023-01-27T04:36:12.587Z,18.30
2023-01-27T04:37:15.012Z,18.40
2023-01-27T04:38:17.482Z,18.50
2023-01-27T04:39:20.254Z,18.50
2023-01-27T04:40:22.533Z,18.50
2023-01-27T04:41:24.930Z,18.60
2023-01-27T04:42:27.263Z,18.60
2023-01-27T04:43:30.026Z,18.70
2023-01-27T04:44:32.429Z,18.70
2023-01-27T04:45:34.791Z,18.80
2023-01-27T04:46:38.029Z,18.80
2023-01-27T04:47:40.317Z,18.80
2023-01-27T04:48:42.678Z,18.90
2023-01-27T04:49:44.958Z,18.90
2023-01-27T04:50:47.314Z,18.90
2023-01-27T04:51:50.203Z,18.90
2023-01-27T04:52:52.615Z,18.90
2023-01-27T04:53:55.307Z,18.90
2023-01-27T04:54:57.632Z,19.00
2023-01-27T04:56:15.040Z,19.00
2023-01-27T04:57:17.385Z,19.00
2023-01-27T04:58:19.769Z,19.00
2023-01-27T04:59:22.311Z,19.00
2023-01-27T05:00:24.958Z,19.10
2023-01-27T05:01:27.999Z,19.10
2023-01-27T05:02:30.321Z,19.10
2023-01-27T05:03:32.684Z,19.10
2023-01-27T05:04:35.228Z,19.10
2023-01-27T05:05:38.329Z,19.10
2023-01-27T05:06:40.622Z,19.10
2023-01-27T05:07:42.986Z,19.10
2023-01-27T05:08:45.412Z,19.10
2023-01-27T05:09:47.819Z,19.20
2023-01-27T05:10:52.471Z,19.20
2023-01-27T05:11:54.876Z,19.20
2023-01-27T05:12:57.242Z,19.20
2023-01-27T05:13:59.612Z,19.20
2023-01-27T05:15:01.949Z,19.00
2023-01-27T05:16:10.595Z,17.80
2023-01-27T05:17:13.052Z,16.70
2023-01-27T05:18:15.423Z,16.10
2023-01-27T05:19:17.793Z,16.10
2023-01-27T05:20:20.154Z,16.70
2023-01-27T05:21:24.828Z,17.20
2023-01-27T05:22:27.104Z,17.60
2023-01-27T05:23:35.602Z,17.90
2023-01-27T05:24:41.185Z,18.00
2023-01-27T05:25:46.408Z,18.10
2023-01-27T05:26:48.779Z,18.20
2023-01-27T05:27:53.892Z,18.30
2023-01-27T05:28:59.599Z,18.40
2023-01-27T05:30:02.083Z,18.50
2023-01-27T05:31:08.719Z,18.50
2023-01-27T05:32:11.074Z,18.60
2023-01-27T05:33:13.411Z,18.60
2023-01-27T05:34:16.757Z,18.70
2023-01-27T05:35:19.080Z,18.70
2023-01-27T05:36:23.550Z,18.80
2023-01-27T05:37:26.507Z,18.80
2023-01-27T05:38:29.476Z,18.90
2023-01-27T05:39:31.816Z,18.90
2023-01-27T05:40:34.240Z,19.00
2023-01-27T05:41:36.747Z,19.00
2023-01-27T05:42:39.120Z,19.00
2023-01-27T05:43:43.673Z,19.00
2023-01-27T05:44:46.097Z,19.00
2023-01-27T05:45:48.457Z,19.10
2023-01-27T05:46:50.860Z,19.10
2023-01-27T05:47:53.224Z,19.10
2023-01-27T05:48:58.681Z,19.20
2023-01-27T05:50:00.951Z,19.20
2023-01-27T05:51:04.594Z,19.20
2023-01-27T05:52:06.914Z,19.20
2023-01-27T05:53:09.212Z,19.30
2023-01-27T05:54:11.578Z,19.30
2023-01-27T05:55:14.261Z,19.30
2023-01-27T05:56:18.457Z,19.30
2023-01-27T05:57:20.797Z,19.30
2023-01-27T05:58:23.946Z,19.30
2023-01-27T05:59:26.339Z,19.40
2023-01-27T06:00:28.680Z,19.40
2023-01-27T06:01:33.018Z,19.40
2023-01-27T06:02:35.437Z,19.40
2023-01-27T06:03:38.676Z,19.40
2023-01-27T06:04:41.111Z,19.40
2023-01-27T06:05:54.514Z,19.40
2023-01-27T06:06:56.801Z,19.40
2023-01-27T06:07:59.238Z,19.40
2023-01-27T06:09:02.198Z,19.50
2023-01-27T06:10:05.622Z,19.50
2023-01-27T06:11:08.238Z,19.40
2023-01-27T06:12:10.567Z,19.50
2023-01-27T06:13:13.128Z,19.50
2023-01-27T06:14:15.597Z,19.50
2023-01-27T06:15:17.898Z,19.40
2023-01-27T06:16:21.743Z,19.40
2023-01-27T06:17:24.100Z,19.40
2023-01-27T06:18:26.441Z,19.30
2023-01-27T06:19:28.763Z,19.20
2023-01-27T06:20:31.047Z,19.20
2023-01-27T06:21:33.318Z,19.10
2023-01-27T06:22:35.655Z,19.10
2023-01-27T06:23:38.503Z,19.00
2023-01-27T06:24:40.889Z,19.00
2023-01-27T06:25:48.033Z,19.10
2023-01-27T06:26:50.278Z,19.20
2023-01-27T06:27:56.524Z,19.20
2023-01-27T06:28:58.952Z,19.30
2023-01-27T06:30:01.283Z,19.30
2023-01-27T06:31:06.591Z,19.30
2023-01-27T06:32:08.991Z,19.30
2023-01-27T06:33:13.817Z,19.40
2023-01-27T06:34:17.091Z,19.40
2023-01-27T06:35:19.539Z,19.40
2023-01-27T06:36:22.619Z,19.40
2023-01-27T06:37:24.999Z,19.40
2023-01-27T06:38:27.345Z,19.50
2023-01-27T06:39:29.629Z,19.50
2023-01-27T06:40:33.096Z,19.40
2023-01-27T06:41:35.513Z,19.50
2023-01-27T06:42:38.038Z,19.50
2023-01-27T06:43:40.382Z,19.50
2023-01-27T06:44:42.726Z,19.50
2023-01-27T06:45:45.111Z,19.50
2023-01-27T06:46:47.421Z,19.50
2023-01-27T06:48:00.406Z,19.50
2023-01-27T06:49:02.716Z,19.50
2023-01-27T06:50:05.561Z,19.50
2023-01-27T06:51:07.910Z,19.60
2023-01-27T06:52:10.310Z,19.60
2023-01-27T06:53:12.843Z,19.50
2023-01-27T06:54:15.169Z,19.40
2023-01-27T06:55:19.073Z,19.30
2023-01-27T06:56:21.423Z,19.30
2023-01-27T06:57:23.827Z,19.20
2023-01-27T06:58:26.768Z,19.20
2023-01-27T06:59:29.661Z,19.10
2023-01-27T07:00:31.983Z,19.10
2023-01-27T07:01:35.175Z,19.20
2023-01-27T07:02:37.699Z,19.30
2023-01-27T07:03:39.994Z,19.30
2023-01-27T07:04:42.280Z,19.40
2023-01-27T07:05:44.664Z,19.40
2023-01-27T07:06:47.073Z,19.50
2023-01-27T07:07:49.384Z,19.50
2023-01-27T07:08:53.544Z,19.50
2023-01-27T07:09:56.991Z,19.50
2023-01-27T07:11:03.455Z,19.60
2023-01-27T07:12:05.960Z,19.60
2023-01-27T07:13:10.314Z,19.60
2023-01-27T07:14:12.825Z,19.60
2023-01-27T07:15:15.376Z,19.60
2023-01-27T07:16:17.778Z,19.60
2023-01-27T07:17:20.089Z,19.60
2023-01-27T07:18:23.008Z,19.60
2023-01-27T07:19:25.374Z,19.70
2023-01-27T07:20:28.754Z,19.70
2023-01-27T07:21:31.252Z,19.70
2023-01-27T07:22:33.805Z,19.70
2023-01-27T07:23:36.196Z,19.70
2023-01-27T07:24:38.698Z,19.70
2023-01-27T07:25:41.242Z,19.70
2023-01-27T07:26:45.102Z,19.70
2023-01-27T07:27:47.450Z,19.70
2023-01-27T07:28:49.826Z,19.70
2023-01-27T07:29:52.419Z,19.70
2023-01-27T07:30:54.879Z,19.70
2023-01-27T07:31:57.231Z,19.70
2023-01-27T07:33:13.848Z,19.70
2023-01-27T07:34:16.218Z,19.70
2023-01-27T07:35:18.617Z,19.70
2023-01-27T07:36:20.922Z,19.70
2023-01-27T07:37:23.372Z,19.70
2023-01-27T07:38:25.749Z,19.70
2023-01-27T07:39:28.078Z,19.70
2023-01-27T07:40:30.511Z,19.70
2023-01-27T07:41:33.372Z,19.80
2023-01-27T07:42:37.692Z,19.80
2023-01-27T07:43:40.165Z,19.80
2023-01-27T07:44:43.877Z,19.80
2023-01-27T07:45:49.084Z,19.80
2023-01-27T07:46:51.705Z,19.80
2023-01-27T07:47:54.367Z,19.70
2023-01-27T07:48:57.051Z,19.70
2023-01-27T07:49:59.746Z,19.70
2023-01-27T07:51:02.452Z,19.70
2023-01-27T07:52:05.100Z,19.70
2023-01-27T07:53:07.707Z,19.70
2023-01-27T07:54:10.318Z,19.80
2023-01-27T07:55:13.214Z,19.80
2023-01-27T07:56:15.944Z,19.80
2023-01-27T07:57:18.695Z,19.80
2023-01-27T07:58:21.046Z,19.80
2023-01-27T07:59:23.377Z,19.10
2023-01-27T08:00:25.984Z,17.90
2023-01-27T08:01:28.409Z,17.10
2023-01-27T08:02:31.583Z,16.30
2023-01-27T08:03:34.850Z,15.80
2023-01-27T08:04:47.212Z,15.80
2023-01-27T08:05:54.633Z,16.30
2023-01-27T08:06:56.999Z,16.90
2023-01-27T08:08:03.696Z,17.30
2023-01-27T08:09:06.562Z,17.60
2023-01-27T08:10:10.639Z,17.90
2023-01-27T08:11:15.192Z,18.00
2023-01-27T08:12:17.912Z,18.20
2023-01-27T08:13:20.704Z,18.30
2023-01-27T08:14:23.448Z,18.50
2023-01-27T08:15:26.232Z,18.60
2023-01-27T08:16:29.411Z,18.70
2023-01-27T08:17:31.848Z,18.80
2023-01-27T08:18:34.637Z,19.00
2023-01-27T08:19:37.296Z,19.00
2023-01-27T08:20:39.753Z,19.10
2023-01-27T08:21:42.318Z,19.10
2023-01-27T08:22:44.792Z,19.10
2023-01-27T08:23:47.313Z,19.20
2023-01-27T08:24:49.986Z,19.20
2023-01-27T08:26:03.668Z,19.20
2023-01-27T08:27:08.211Z,19.20
2023-01-27T08:28:10.848Z,19.30
2023-01-27T08:29:13.281Z,19.30
2023-01-27T08:30:16.084Z,19.40
2023-01-27T08:31:19.246Z,19.40
2023-01-27T08:32:21.725Z,19.40
2023-01-27T08:33:24.480Z,19.40
2023-01-27T08:34:26.881Z,19.40
2023-01-27T08:35:29.342Z,19.50
2023-01-27T08:36:31.755Z,19.60
2023-01-27T08:37:34.171Z,19.60
2023-01-27T08:38:37.748Z,19.60
2023-01-27T08:39:40.106Z,19.60
2023-01-27T08:40:43.055Z,19.60
2023-01-27T08:41:45.476Z,19.60
2023-01-27T08:42:50.684Z,19.70
2023-01-27T08:43:55.234Z,19.70
2023-01-27T08:44:58.163Z,19.60
2023-01-27T08:46:00.920Z,19.70
2023-01-27T08:47:03.508Z,19.70
2023-01-27T08:48:06.790Z,19.80
2023-01-27T08:49:09.402Z,19.80
2023-01-27T08:50:12.591Z,19.80
2023-01-27T08:51:15.398Z,19.80
2023-01-27T08:52:17.863Z,19.80
2023-01-27T08:53:21.946Z,19.80
2023-01-27T08:54:24.318Z,19.80
2023-01-27T08:55:31.352Z,19.80
2023-01-27T08:56:34.018Z,19.90
2023-01-27T08:57:37.294Z,19.80
2023-01-27T08:58:39.839Z,19.80
2023-01-27T08:59:42.402Z,19.80
2023-01-27T09:00:45.216Z,19.80
2023-01-27T09:01:47.659Z,19.80
2023-01-27T09:02:53.121Z,19.80
2023-01-27T09:03:55.589Z,19.00
2023-01-27T09:04:58.017Z,18.30
2023-01-27T09:06:00.811Z,18.40
2023-01-27T09:07:03.283Z,18.60
2023-01-27T09:08:06.377Z,18.80
2023-01-27T09:09:11.256Z,19.00
2023-01-27T09:10:15.707Z,19.10
2023-01-27T09:11:18.319Z,19.30
2023-01-27T09:12:20.776Z,19.50
2023-01-27T09:13:23.319Z,20.50
2023-01-27T09:14:25.698Z,20.90
2023-01-27T09:15:28.076Z,20.70
2023-01-27T09:16:30.751Z,20.60
2023-01-27T09:17:33.250Z,20.50
2023-01-27T09:18:36.064Z,20.50
2023-01-27T09:19:38.579Z,20.40
2023-01-27T09:20:40.906Z,20.30
2023-01-27T09:21:43.297Z,20.30
2023-01-27T09:22:45.713Z,20.30
2023-01-27T09:23:51.017Z,20.30
2023-01-27T09:24:53.398Z,20.20
2023-01-27T09:25:55.791Z,20.10
2023-01-27T09:27:00.831Z,20.10
2023-01-27T09:28:03.506Z,20.10
2023-01-27T09:29:06.543Z,19.90
2023-01-27T09:30:11.908Z,19.90
2023-01-27T09:31:15.122Z,20.00
2023-01-27T09:32:17.833Z,20.00
2023-01-27T09:33:20.683Z,20.00
2023-01-27T09:34:23.324Z,20.00
2023-01-27T09:35:30.403Z,20.00
2023-01-27T09:36:40.752Z,20.00
2023-01-27T09:37:56.469Z,20.10
2023-01-27T09:39:02.971Z,20.10
2023-01-27T09:40:31.036Z,20.10
2023-01-27T09:42:19.332Z,20.10
2023-01-27T09:43:21.699Z,20.20
2023-01-27T09:44:52.108Z,19.30
2023-01-27T09:46:17.854Z,18.40
2023-01-27T09:47:27.087Z,17.70
2023-01-27T09:48:38.495Z,17.10
2023-01-27T09:50:02.761Z,17.60
2023-01-27T09:51:33.441Z,17.90
2023-01-27T09:52:47.564Z,18.40
2023-01-27T09:54:19.439Z,18.60
2023-01-27T09:56:01.607Z,18.80
2023-01-27T09:57:22.736Z,19.00
2023-01-27T09:59:09.429Z,19.10
2023-01-27T10:00:37.320Z,19.30
2023-01-27T10:01:55.699Z,19.30
2023-01-27T10:03:39.180Z,19.40
2023-01-27T10:04:56.779Z,19.50
2023-01-27T10:06:21.081Z,19.50
2023-01-27T10:07:23.329Z,19.60
2023-01-27T10:08:41.594Z,19.60
2023-01-27T10:10:16.317Z,19.70
2023-01-27T10:11:55.595Z,19.70
2023-01-27T10:13:31.485Z,19.40
2023-01-27T10:14:42.795Z,19.30
2023-01-27T10:15:56.570Z,19.20
2023-01-27T10:17:13.706Z,19.10
2023-01-27T10:18:46.691Z,19.10
2023-01-27T10:20:17.619Z,19.20
2023-01-27T10:21:49.617Z,19.40
2023-01-27T10:23:22.568Z,19.60
2023-01-27T10:24:39.971Z,19.60
2023-01-27T10:25:53.031Z,19.60
2023-01-27T10:27:14.385Z,19.70
2023-01-27T10:28:26.862Z,19.70
2023-01-27T10:29:49.833Z,19.70
2023-01-27T10:31:08.123Z,19.70
2023-01-27T10:32:28.251Z,19.80
2023-01-27T10:33:53.302Z,19.80
2023-01-27T10:35:24.038Z,19.80
2023-01-27T10:36:39.136Z,19.80
2023-01-27T10:37:46.967Z,19.80
2023-01-27T10:39:10.202Z,19.80
2023-01-27T10:40:34.128Z,19.80
2023-01-27T10:41:51.525Z,19.90
2023-01-27T10:43:19.899Z,19.80
2023-01-27T10:44:52.170Z,19.80
2023-01-27T10:46:11.903Z,19.70
2023-01-27T10:47:29.894Z,19.60
2023-01-27T10:48:50.147Z,19.70
2023-01-27T10:50:01.372Z,19.80
2023-01-27T10:51:22.519Z,19.80
2023-01-27T10:52:30.445Z,19.80
2023-01-27T10:53:48.329Z,19.80
2023-01-27T10:55:13.579Z,19.80
2023-01-27T10:56:24.530Z,19.80
2023-01-27T10:57:36.989Z,19.90
2023-01-27T10:58:57.144Z,19.90
2023-01-27T11:00:41.550Z,20.00
2023-01-27T11:01:43.267Z,20.00
2023-01-27T11:03:10.408Z,19.90
2023-01-27T11:04:47.537Z,19.90
2023-01-27T11:05:53.496Z,20.00
2023-01-27T11:06:57.657Z,20.00
2023-01-27T11:08:05.069Z,20.00
2023-01-27T11:09:26.984Z,20.10
2023-01-27T11:10:37.163Z,20.00
2023-01-27T11:11:47.314Z,20.00
2023-01-27T11:12:55.927Z,20.00
2023-01-27T11:14:04.688Z,20.00
2023-01-27T11:15:29.300Z,20.00
2023-01-27T11:16:38.640Z,20.10
2023-01-27T11:18:03.779Z,20.10
2023-01-27T11:19:18.579Z,20.00
2023-01-27T11:20:27.974Z,20.00
2023-01-27T11:21:32.425Z,20.10
2023-01-27T11:23:01.131Z,20.00
2023-01-27T11:24:21.252Z,20.10
2023-01-27T11:25:29.322Z,20.10
2023-01-27T11:26:34.690Z,20.10
2023-01-27T11:27:58.835Z,20.10
2023-01-27T11:29:19.729Z,20.10
2023-01-27T11:30:30.719Z,20.10
2023-01-27T11:31:46.575Z,20.10
2023-01-27T11:33:03.788Z,20.10
2023-01-27T11:34:30.806Z,20.10
2023-01-27T11:35:33.172Z,20.10
2023-01-27T11:36:35.628Z,20.10
2023-01-27T11:37:40.490Z,20.10
2023-01-27T11:38:42.942Z,20.10
2023-01-27T11:39:45.598Z,20.10
2023-01-27T11:40:51.040Z,20.10
2023-01-27T11:41:57.815Z,20.10
2023-01-27T11:43:01.758Z,20.10
2023-01-27T11:44:08.985Z,20.10
2023-01-27T11:45:17.058Z,20.10
2023-01-27T11:46:23.851Z,20.10
2023-01-27T11:47:38.522Z,20.10
2023-01-27T11:48:47.321Z,20.10
2023-01-27T11:49:52.323Z,20.10
2023-01-27T11:50:54.668Z,20.10
2023-01-27T11:52:05.864Z,20.10
2023-01-27T11:53:17.405Z,20.10
2023-01-27T11:54:25.674Z,20.10
2023-01-27T11:55:40.166Z,20.10
2023-01-27T11:56:46.951Z,20.20
2023-01-27T11:57:55.243Z,20.10
2023-01-27T11:59:25.882Z,20.20
2023-01-27T12:00:37.987Z,20.20
2023-01-27T12:02:01.782Z,20.20
2023-01-27T12:03:07.573Z,20.20
2023-01-27T12:04:18.536Z,20.20
2023-01-27T12:05:36.599Z,20.10
2023-01-27T12:06:56.650Z,20.10
2023-01-27T12:08:04.588Z,20.10
2023-01-27T12:09:07.102Z,20.10
2023-01-27T12:10:42.104Z,20.00
2023-01-27T12:11:44.478Z,20.10
2023-01-27T12:12:46.915Z,20.10
2023-01-27T12:13:57.946Z,20.20
2023-01-27T12:15:04.447Z,20.10
2023-01-27T12:16:07.252Z,20.10
2023-01-27T12:17:22.634Z,20.20
2023-01-27T12:18:25.270Z,20.10
2023-01-27T12:19:32.662Z,20.20
2023-01-27T12:20:45.059Z,20.10
2023-01-27T12:21:51.033Z,20.10
2023-01-27T12:22:56.673Z,20.20
2023-01-27T12:24:00.135Z,20.20
2023-01-27T12:25:19.841Z,20.20
2023-01-27T12:26:39.160Z,20.20
2023-01-27T12:27:49.617Z,20.20
2023-01-27T12:28:54.516Z,20.20
2023-01-27T12:30:06.512Z,20.20
2023-01-27T12:31:15.216Z,20.20
2023-01-27T12:32:27.901Z,20.20
2023-01-27T12:33:32.538Z,20.20
2023-01-27T12:34:37.503Z,20.20
2023-01-27T12:35:40.527Z,20.20
2023-01-27T12:36:44.511Z,20.20
2023-01-27T12:37:49.060Z,20.20
2023-01-27T12:38:52.759Z,20.20
2023-01-27T12:40:00.442Z,20.20
2023-01-27T12:41:07.803Z,20.20
2023-01-27T12:42:40.654Z,20.20
2023-01-27T12:43:52.179Z,20.30
2023-01-27T12:44:54.465Z,20.20
2023-01-27T12:46:08.665Z,20.00
2023-01-27T12:47:28.433Z,19.90
2023-01-27T12:48:33.494Z,19.80
2023-01-27T12:49:39.678Z,19.80
2023-01-27T12:50:51.117Z,20.00
2023-01-27T12:51:56.322Z,20.00
2023-01-27T12:53:18.319Z,20.00
2023-01-27T12:54:23.541Z,20.10
2023-01-27T12:55:31.339Z,20.10
2023-01-27T12:56:34.913Z,20.10
2023-01-27T12:57:43.613Z,20.10
2023-01-27T12:58:54.470Z,20.10
2023-01-27T12:59:58.603Z,20.10
2023-01-27T13:01:05.009Z,20.20
2023-01-27T13:02:21.011Z,20.10
2023-01-27T13:03:24.507Z,20.20
2023-01-27T13:04:28.754Z,20.20
2023-01-27T13:05:37.050Z,20.20
2023-01-27T13:06:43.500Z,20.20
2023-01-27T13:07:49.199Z,20.20
2023-01-27T13:08:53.302Z,20.20
2023-01-27T13:10:02.161Z,20.20
2023-01-27T13:11:05.934Z,20.20
2023-01-27T13:12:21.037Z,20.20
2023-01-27T13:13:28.642Z,20.20
2023-01-27T13:14:42.338Z,20.30
2023-01-27T13:15:56.698Z,20.30
2023-01-27T13:16:59.145Z,20.30
2023-01-27T13:18:19.105Z,20.30
2023-01-27T13:19:37.875Z,20.30
2023-01-27T13:20:48.580Z,20.30
2023-01-27T13:21:53.699Z,20.40
2023-01-27T13:23:17.746Z,20.30
2023-01-27T13:24:38.791Z,20.40
2023-01-27T13:25:47.600Z,20.40
2023-01-27T13:26:51.506Z,20.30
2023-01-27T13:27:58.572Z,20.40
2023-01-27T13:29:20.075Z,20.40
2023-01-27T13:30:30.611Z,20.40
2023-01-27T13:31:59.199Z,20.40
2023-01-27T13:33:14.481Z,20.40
2023-01-27T13:34:50.477Z,20.40
2023-01-27T13:36:10.114Z,20.40
2023-01-27T13:37:18.173Z,20.50
2023-01-27T13:38:26.268Z,20.50
2023-01-27T13:39:45.257Z,20.50
2023-01-27T13:40:48.097Z,20.50
2023-01-27T13:42:05.876Z,20.50
2023-01-27T13:43:10.948Z,20.50
2023-01-27T13:44:44.747Z,20.50
2023-01-27T13:46:14.939Z,20.50
2023-01-27T13:47:23.136Z,20.50
2023-01-27T13:48:37.447Z,20.50
2023-01-27T13:49:44.710Z,20.50
2023-01-27T13:51:07.746Z,20.50
2023-01-27T13:52:11.807Z,20.60
2023-01-27T13:53:17.066Z,20.50
2023-01-27T13:54:19.464Z,20.50
2023-01-27T13:55:40.394Z,20.50
2023-01-27T13:56:57.439Z,20.50
2023-01-27T13:58:47.729Z,20.60
2023-01-27T14:00:16.270Z,20.60
2023-01-27T14:01:28.547Z,20.60
2023-01-27T14:02:36.961Z,20.60
2023-01-27T14:03:50.971Z,20.60
2023-01-27T14:05:07.968Z,20.60
2023-01-27T14:06:23.846Z,20.60
2023-01-27T14:07:29.939Z,20.60
2023-01-27T14:08:49.978Z,20.60
2023-01-27T14:10:35.581Z,20.60
2023-01-27T14:11:52.431Z,20.60
2023-01-27T14:13:14.313Z,20.60
2023-01-27T14:14:37.304Z,20.60
2023-01-27T14:15:51.776Z,20.60
2023-01-27T14:17:12.497Z,20.60
2023-01-27T14:18:17.207Z,20.60
2023-01-27T14:19:29.975Z,20.60
2023-01-27T14:20:53.773Z,20.60
2023-01-27T14:22:32.826Z,20.60
2023-01-27T14:24:00.864Z,20.60
2023-01-27T14:25:30.268Z,20.50
2023-01-27T14:27:12.506Z,20.50
2023-01-27T14:28:37.085Z,20.60
2023-01-27T14:30:02.293Z,20.60
2023-01-27T14:31:16.597Z,20.60
2023-01-27T14:32:37.633Z,20.60
2023-01-27T14:33:59.579Z,20.70
2023-01-27T14:35:24.181Z,20.40
2023-01-27T14:36:36.326Z,20.20
2023-01-27T14:38:08.183Z,20.20